Alpine Link — V7SZ7 — position and weather

sailwx.info

Track history (hours):
 
Tides and Currents Weather Stations Pressure Air Temp Water Temp Dewpoint Dewpoint Depression Visibility Wind Speed Wind Dir Waves Ship Positions

Alpine Link

Last reported at 2017-Jun-30 13:24 UTC. Time now 2017-Aug-22 18:45 UTC.
Position N 29°21' W 094°45'.
Warning: this ship's position is 53 days out of date.

Length 183 m; draft 11.3 m.

Type: Tanker. MMSI: 538003758.

Date/timePositionNaut miles runAvg speedWind from/ knotsBaromVisibWave heightAir tempDewpointWater temp
2017-Jun-30 13:24N 29°21' W 094°45'1110.8
2017-Jun-30 12:24N 29°30' W 094°52'411.3
2017-Jun-30 12:00N 29°33' W 094°55'510.7
2017-Jun-30 11:30N 29°38' W 094°58'4 8.4
2017-Jun-30 11:00N 29°42' W 094°60'4 7.1
2017-Jun-30 10:30N 29°44' W 095°03'3 5.1
2017-Jun-30 10:00N 29°45' W 095°06'0 0.6
2017-Jun-30 09:30N 29°45' W 095°06'0 0.0
2017-Jun-28 21:03N 29°45' W 095°06'0 0.1
2017-Jun-28 21:00N 29°45' W 095°06'1 2.2
2017-Jun-28 20:30N 29°46' W 095°05'4 7.4
2017-Jun-28 20:00N 29°44' W 095°02'5 9.3
2017-Jun-28 19:30N 29°40' W 094°59'611.2
2017-Jun-28 19:01N 29°35' W 094°56'612.2
2017-Jun-28 18:30N 29°30' W 094°52'612.8
2017-Jun-28 18:00N 29°24' W 094°49'  
Track history (hours):
 
Tides and Currents Weather Stations Pressure Air Temp Water Temp Dewpoint Dewpoint Depression Visibility Wind Speed Wind Dir Waves Ship Positions

Alpine Link

Last reported at 2017-Jun-30 13:24 UTC. Time now 2017-Aug-22 18:45 UTC.
Position N 29°21' W 094°45'.
Warning: this ship's position is 53 days out of date.

Length 183 m; draft 11.3 m.

Type: Tanker. MMSI: 538003758.

Date/timePositionNaut miles runAvg speedWind from/ knotsBaromVisibWave heightAir tempDewpointWater temp
2017-Jun-30 13:24N 29°21' W 094°45'1110.8
2017-Jun-30 12:24N 29°30' W 094°52'411.3
2017-Jun-30 12:00N 29°33' W 094°55'510.7
2017-Jun-30 11:30N 29°38' W 094°58'4 8.4
2017-Jun-30 11:00N 29°42' W 094°60'4 7.1
2017-Jun-30 10:30N 29°44' W 095°03'3 5.1
2017-Jun-30 10:00N 29°45' W 095°06'0 0.6
2017-Jun-30 09:30N 29°45' W 095°06'0 0.0
2017-Jun-28 21:03N 29°45' W 095°06'0 0.1
2017-Jun-28 21:00N 29°45' W 095°06'1 2.2
2017-Jun-28 20:30N 29°46' W 095°05'4 7.4
2017-Jun-28 20:00N 29°44' W 095°02'5 9.3
2017-Jun-28 19:30N 29°40' W 094°59'611.2
2017-Jun-28 19:01N 29°35' W 094°56'612.2
2017-Jun-28 18:30N 29°30' W 094°52'612.8
2017-Jun-28 18:00N 29°24' W 094°49'  

Dump ship's entire track history